Avenal, California
Current Conditions -  °F | °C
As of 1:56 AM on Sunday 21 Dec 2014 (Local Time) from KNLC Reporting Station
Overcast Overcast  
Wind Chill: 51°   Ceiling: 200
Heat Index: 51°   Visibility: NA
Dew Point: 51°   Wind: 7mph
Humidity: 100%   Direction: 240°WSW
Pressure: 30.26"   Gusts: NA
Location:  36°N, 120.13°W
Report Text: KNLC 210956Z AUTO 24006KT OVC002 11/11 A3026 RMK AO2 SLP249 T01060106 RVRNO $
Loading
Personal Weather Stations






























Interactive Weather Map New forecast layout! Learn more

10-Day Weather Forecast

Advertisements
Track Severe Weather on mobile